Map

Track Data

SID SEASON NUMBER BASIN SUBBASIN NAME ISO_TIME NATURE LAT LON WMO_WIND WMO_PRES WMO_AGENCY TRACK_TYPE DIST2LAND LANDFALL IFLAG USA_AGENCY USA_ATCF_ID USA_LAT USA_LON USA_RECORD USA_STATUS USA_WIND USA_PRES USA_SSHS USA_R34_NE USA_R34_SE USA_R34_SW USA_R34_NW USA_R50_NE USA_R50_SE USA_R50_SW USA_R50_NW USA_R64_NE USA_R64_SE USA_R64_SW USA_R64_NW USA_POCI USA_ROCI USA_RMW USA_EYE TOKYO_LAT TOKYO_LON TOKYO_GRADE TOKYO_WIND TOKYO_PRES TOKYO_R50_DIR TOKYO_R50_LONG TOKYO_R50_SHORT TOKYO_R30_DIR TOKYO_R30_LONG TOKYO_R30_SHORT TOKYO_LAND CMA_LAT CMA_LON CMA_CAT CMA_WIND CMA_PRES HKO_LAT HKO_LON HKO_CAT HKO_WIND HKO_PRES NEWDELHI_LAT NEWDELHI_LON NEWDELHI_GRADE NEWDELHI_WIND NEWDELHI_PRES NEWDELHI_CI NEWDELHI_DP NEWDELHI_POCI REUNION_LAT REUNION_LON REUNION_TYPE REUNION_WIND REUNION_PRES REUNION_TNUM REUNION_CI REUNION_RMW REUNION_R34_NE REUNION_R34_SE REUNION_R34_SW REUNION_R34_NW REUNION_R50_NE REUNION_R50_SE REUNION_R50_SW REUNION_R50_NW REUNION_R64_NE REUNION_R64_SE REUNION_R64_SW REUNION_R64_NW BOM_LAT BOM_LON BOM_TYPE BOM_WIND BOM_PRES BOM_TNUM BOM_CI BOM_RMW BOM_R34_NE BOM_R34_SE BOM_R34_SW BOM_R34_NW BOM_R50_NE BOM_R50_SE BOM_R50_SW BOM_R50_NW BOM_R64_NE BOM_R64_SE BOM_R64_SW BOM_R64_NW BOM_ROCI BOM_POCI BOM_EYE BOM_POS_METHOD BOM_PRES_METHOD NADI_LAT NADI_LON NADI_CAT NADI_WIND NADI_PRES WELLINGTON_LAT WELLINGTON_LON WELLINGTON_WIND WELLINGTON_PRES DS824_LAT DS824_LON DS824_STAGE DS824_WIND DS824_PRES TD9636_LAT TD9636_LON TD9636_STAGE TD9636_WIND TD9636_PRES TD9635_LAT TD9635_LON TD9635_WIND TD9635_PRES TD9635_ROCI NEUMANN_LAT NEUMANN_LON NEUMANN_CLASS NEUMANN_WIND NEUMANN_PRES MLC_LAT MLC_LON MLC_CLASS MLC_WIND MLC_PRES USA_GUST BOM_GUST BOM_GUST_PER REUNION_GUST REUNION_GUST_PER USA_SEAHGT USA_SEARAD_NE USA_SEARAD_SE USA_SEARAD_SW USA_SEARAD_NW STORM_SPEED STORM_DIR
1937008S14059 1937 3 SI MM NOT_NAMED 1937-01-08 06:00:00 NR -13.6000 59.3000 reunion main 747 747 _____O________ -1 -13.6000 59.3000 99 9.90000 0 0
1937008S14059 1937 3 SI MM NOT_NAMED 1937-01-08 09:00:00 NR -13.5989 59.3208 main 747 747 _____P________ -1 -13.5989 59.3208 99 0 94
1937008S14059 1937 3 SI MM NOT_NAMED 1937-01-08 12:00:00 NR -13.6026 59.3361 main 747 747 _____P________ -1 -13.6026 59.3361 99 0 0
1937008S14059 1937 3 SI MM NOT_NAMED 1937-01-08 15:00:00 NR -13.6160 59.3403 main 747 747 _____P________ -1 -13.6160 59.3403 99 0 0
1937008S14059 1937 3 SI MM NOT_NAMED 1937-01-08 18:00:00 NR -13.6441 59.3278 main 747 736 _____P________ -1 -13.6441 59.3278 99 1 211
1937008S14059 1937 3 SI MM NOT_NAMED 1937-01-08 21:00:00 NR -13.6917 59.2932 main 736 722 _____P________ -1 -13.6917 59.2932 99 3 220
1937008S14059 1937 3 SI MM NOT_NAMED 1937-01-09 00:00:00 TS -13.8509 59.1446 main 709 696 _____P___O____ -1 -13.7637 59.2307 99 -14.2000 58.8000 TC 35 5 223
1937008S14059 1937 3 SI MM NOT_NAMED 1937-01-09 03:00:00 TS -14.0441 58.9525 main 696 670 _____P___P____ -1 -13.8648 59.1349 99 -14.4026 58.5876 TC 35 6 224
1937008S14059 1937 3 SI MM NOT_NAMED 1937-01-09 06:00:00 TS -14.2500 58.7500 reunion main 670 633 _____O___OO___ -1 -14.0000 59.0000 99 9.90000 -14.6000 58.4000 TC 35 -14.2000 58.8000 2 6 222
1937008S14059 1937 3 SI MM NOT_NAMED 1937-01-09 09:00:00 TS -14.4654 58.5569 main 633 608 _____P___PP___ -1 -14.1725 58.8236 99 -14.7925 58.2499 TC 35 -14.3969 58.6375 2 5 220
1937008S14059 1937 3 SI MM NOT_NAMED 1937-01-09 12:00:00 TS -14.6639 58.3886 main 608 584 _____P___OP___ -1 -14.3794 58.6163 99 -15.0000 58.1000 TC 35 -14.5950 58.4699 2 6 220
1937008S14059 1937 3 SI MM NOT_NAMED 1937-01-09 15:00:00 TS -14.8848 58.1922 main 584 560 _____P___PP___ -1 -14.6163 58.3918 99 -15.2425 57.8926 TC 35 -14.7956 58.2924 2 6 220
1937008S14059 1937 3 SI MM NOT_NAMED 1937-01-09 18:00:00 TS -15.1263 57.9880 main 560 526 _____P___OO___ -1 -14.8789 58.1640 99 -15.5000 57.7000 TC 35 -15.0000 58.1000 2 6 218
1937008S14059 1937 3 SI MM NOT_NAMED 1937-01-09 21:00:00 TS -15.3672 57.7988 main 526 503 _____P___PP___ -1 -15.1628 57.9468 99 -15.7275 57.5551 TC 35 -15.2113 57.8944 2 6 212
1937008S14059 1937 3 SI MM NOT_NAMED 1937-01-10 00:00:00 TS -15.6346 57.6525 main 503 469 _____P___OP___ -1 -15.4637 57.7544 99 -16.0000 57.5000 TC 35 -15.4401 57.7032 2 6 200
1937008S14059 1937 3 SI MM NOT_NAMED 1937-01-10 03:00:00 TS -15.9512 57.5720 main 458 425 _____P___PP___ -1 -15.7775 57.6007 99 -16.3775 57.5550 TC 35 -15.6988 57.5603 2 7 187
1937008S14059 1937 3 SI MM NOT_NAMED 1937-01-10 06:00:00 TS -16.3000 57.5667 reunion main 425 391 _____O___OO___ -1 -16.1000 57.5000 99 9.90000 -16.8000 57.7000 TC 35 -16.0000 57.5000 2 7 174
1937008S14059 1937 3 SI MM NOT_NAMED 1937-01-10 09:00:00 TS -16.6704 57.6512 main 380 346 _____P___PP___ -1 -16.4189 57.4867 99 -17.2151 57.8999 TC 35 -16.3772 57.5671 2 8 165
1937008S14059 1937 3 SI MM NOT_NAMED 1937-01-10 12:00:00 TS -17.0481 57.7797 main 346 302 _____P___OP___ -1 -16.7517 57.5226 99 -17.6000 58.1000 TC 35 -16.7926 57.7165 2 8 162
1937008S14059 1937 3 SI MM NOT_NAMED 1937-01-10 15:00:00 TS -17.4094 57.9055 main 302 270 _____P___PP___ -1 -17.0942 57.6011 99 -17.9224 58.2077 TC 35 -17.2117 57.9078 2 7 161
1937008S14059 1937 3 SI MM NOT_NAMED 1937-01-10 18:00:00 TS -17.7473 58.0386 main 270 238 _____P___OO___ -1 -17.4420 57.7157 99 -18.2000 58.3000 TC 35 -17.6000 58.1000 2 7 158
1937008S14059 1937 3 SI MM NOT_NAMED 1937-01-10 21:00:00 TS -18.0401 58.1718 main 240 210 _____P___PP___ -1 -17.7908 57.8596 99 -18.4350 58.4351 TC 35 -17.8946 58.2206 2 6 155
1937008S14059 1937 3 SI MM NOT_NAMED 1937-01-11 00:00:00 TS -18.3312 58.3207 main 210 183 _____P___OP___ -1 -18.1363 58.0262 99 -18.7000 58.6000 TC 35 -18.1573 58.3358 2 7 154
1937008S14059 1937 3 SI MM NOT_NAMED 1937-01-11 03:00:00 TS -18.6585 58.4864 main 177 155 _____P___PP___ -1 -18.4741 58.2086 99 -19.0850 58.7925 TC 35 -18.4164 58.4581 2 7 154
1937008S14059 1937 3 SI MM NOT_NAMED 1937-01-11 06:00:00 TS -19.0000 58.6667 reunion main 161 145 _____O___OO___ -1 -18.8000 58.4000 99 9.90000 -19.5000 59.0000 TC 35 -18.7000 58.6000 2 8 153
1937008S14059 1937 3 SI MM NOT_NAMED 1937-01-11 09:00:00 TS -19.3510 58.8594 main 147 142 _____P___PP___ -1 -19.1098 58.5729 99 -19.8725 59.2150 TC 35 -19.0707 58.7902 2 8 152
1937008S14059 1937 3 SI MM NOT_NAMED 1937-01-11 12:00:00 TS -19.6919 59.0536 main 151 142 _____P___OP___ -1 -19.4106 58.7614 99 -20.2000 59.4000 TC 35 -19.4652 58.9993 2 7 152
1937008S14059 1937 3 SI MM NOT_NAMED 1937-01-11 15:00:00 TS -20.0087 59.2260 main 149 149 _____P___PP___ -1 -19.7017 58.9614 99 -20.4724 59.5077 TC 35 -19.8520 59.2089 2 6 152
1937008S14059 1937 3 SI MM NOT_NAMED 1937-01-11 18:00:00 TS -20.2574 59.3706 main 166 166 _____P___OO___ -1 -19.9829 59.1693 99 -20.7000 59.6000 TC 35 -20.2000 59.4000 2 5 149
1937008S14059 1937 3 SI MM NOT_NAMED 1937-01-11 21:00:00 TS -20.4769 59.5226 main 178 178 _____P___PP___ -1 -20.2537 59.3810 99 -20.9051 59.7348 TC 35 -20.4861 59.5582 2 5 146
1937008S14059 1937 3 SI MM NOT_NAMED 1937-01-12 00:00:00 TS -20.6643 59.6668 main 202 202 _____P___OP___ -1 -20.5137 59.5927 99 -21.1000 59.9000 TC 35 -20.7199 59.6879 2 4 142
1937008S14059 1937 3 SI MM NOT_NAMED 1937-01-12 03:00:00 NR -20.8146 59.7998 main 215 215 _____P____P___ -1 -20.7626 59.8003 99 TC -20.9187 59.7987 2 5 140
1937008S14059 1937 3 SI MM NOT_NAMED 1937-01-12 06:00:00 NR -21.0200 59.9800 reunion main 241 241 _____O____O___ -1 -21.0000 60.0000 99 9.90000 -21.1000 59.9000 2 6 139
1937008S14059 1937 3 SI MM NOT_NAMED 1937-01-12 09:00:00 NR -21.2259 60.1886 main 269 269 _____P________ -1 -21.2259 60.1886 99 2 6 140
1937008S14059 1937 3 SI MM NOT_NAMED 1937-01-12 12:00:00 NR -21.4414 60.3666 main 296 296 _____P________ -1 -21.4414 60.3666 99 2 5 142
1937008S14059 1937 3 SI MM NOT_NAMED 1937-01-12 15:00:00 NR -21.6481 60.5357 main 315 315 _____P________ -1 -21.6481 60.5357 99 2 5 143
1937008S14059 1937 3 SI MM NOT_NAMED 1937-01-12 18:00:00 NR -21.8474 60.6973 main 343 343 _____P________ -1 -21.8474 60.6973 99 5 143
1937008S14059 1937 3 SI MM NOT_NAMED 1937-01-12 21:00:00 NR -22.0408 60.8529 main 371 371 _____P________ -1 -22.0408 60.8529 99 5 143
1937008S14059 1937 3 SI MM NOT_NAMED 1937-01-13 00:00:00 NR -22.2297 61.0042 main 390 390 _____P________ -1 -22.2297 61.0042 99 5 143
1937008S14059 1937 3 SI MM NOT_NAMED 1937-01-13 03:00:00 NR -22.4157 61.1527 main 419 419 _____P________ -1 -22.4157 61.1527 99 5 143
1937008S14059 1937 3 SI MM NOT_NAMED 1937-01-13 06:00:00 NR -22.6000 61.3000 reunion main 440 _____O________ -1 -22.6000 61.3000 99 9.90000 5 143

About IBTrACS Database

This database is a web-friendly format of International Best Track Archive for Climate Stewardship (IBTrACS), a global best track data archive curated by NOAA dating back to 1842.

Updated: 2021-11-26